createdAt,value
2019-01-31T00:01:07.714Z,98182.00
2019-01-31T00:03:56.324Z,98186.00
2019-01-31T00:06:50.732Z,98179.00
2019-01-31T00:09:27.705Z,98170.00
2019-01-31T00:12:22.697Z,98178.00
2019-01-31T00:15:11.218Z,98192.00
2019-01-31T00:17:50.740Z,98174.00
2019-01-31T00:20:42.296Z,98181.00
2019-01-31T00:23:25.294Z,98179.00
2019-01-31T00:26:20.124Z,98172.00
2019-01-31T00:29:02.954Z,98191.00
2019-01-31T00:31:47.022Z,98182.00
2019-01-31T00:34:58.161Z,98189.00
2019-01-31T00:37:44.008Z,98177.00
2019-01-31T00:40:33.198Z,98192.00
2019-01-31T00:43:32.869Z,98186.00
2019-01-31T00:46:24.777Z,98182.00
2019-01-31T00:49:22.639Z,98184.00
2019-01-31T00:52:11.640Z,98175.00
2019-01-31T00:55:01.961Z,98180.00
2019-01-31T00:57:56.871Z,98184.00
2019-01-31T01:00:39.948Z,98169.00
2019-01-31T01:03:25.581Z,98174.00
2019-01-31T01:06:21.987Z,98170.00
2019-01-31T01:09:11.183Z,98171.00
2019-01-31T01:11:45.233Z,98166.00
2019-01-31T01:14:38.782Z,98167.00
2019-01-31T01:17:12.917Z,98161.00
2019-01-31T01:20:21.111Z,98156.00
2019-01-31T01:22:55.191Z,98156.00
2019-01-31T01:25:53.490Z,98148.00
2019-01-31T01:28:33.313Z,98142.00
2019-01-31T01:31:58.979Z,98142.00
2019-01-31T01:35:01.315Z,98143.00
2019-01-31T01:37:58.301Z,98140.00
2019-01-31T01:40:57.982Z,98130.00
2019-01-31T01:43:54.691Z,98134.00
2019-01-31T01:46:46.617Z,98141.00
2019-01-31T01:49:27.750Z,98139.00
2019-01-31T01:52:23.586Z,98135.00
2019-01-31T01:55:20.984Z,98147.00
2019-01-31T01:58:06.815Z,98140.00
2019-01-31T02:00:49.891Z,98145.00
2019-01-31T02:03:43.456Z,98138.00
2019-01-31T02:06:31.977Z,98137.00
2019-01-31T02:09:30.318Z,98149.00
2019-01-31T02:12:11.768Z,98144.00
2019-01-31T02:15:14.291Z,98148.00
2019-01-31T02:17:55.636Z,98146.00
2019-01-31T02:20:58.075Z,98142.00
2019-01-31T02:23:51.592Z,98148.00
2019-01-31T02:26:54.356Z,98142.00
2019-01-31T02:29:55.422Z,98138.00
2019-01-31T02:32:46.228Z,98138.00
2019-01-31T02:35:53.278Z,98134.00
2019-01-31T02:38:42.676Z,98143.00
2019-01-31T02:41:22.846Z,98136.00
2019-01-31T02:44:17.850Z,98134.00
2019-01-31T02:47:18.261Z,98138.00
2019-01-31T02:50:28.420Z,98126.00
2019-01-31T02:53:14.468Z,98136.00
2019-01-31T02:56:04.014Z,98126.00
2019-01-31T02:58:46.626Z,98133.00
2019-01-31T03:01:23.157Z,98124.00
2019-01-31T03:04:15.495Z,98128.00
2019-01-31T03:07:28.789Z,98125.00
2019-01-31T03:10:23.441Z,98126.00
2019-01-31T03:13:03.091Z,98120.00
2019-01-31T03:16:05.505Z,98112.00
2019-01-31T03:18:45.068Z,98110.00
2019-01-31T03:21:19.147Z,98106.00
2019-01-31T03:24:07.705Z,98118.00
2019-01-31T03:27:11.770Z,98106.00
2019-01-31T03:30:07.628Z,98110.00
2019-01-31T03:32:53.477Z,98100.00
2019-01-31T03:35:41.981Z,98106.00
2019-01-31T03:38:21.619Z,98108.00
2019-01-31T03:41:16.781Z,98115.00
2019-01-31T03:43:56.420Z,98109.00
2019-01-31T03:46:58.309Z,98107.00
2019-01-31T03:50:06.775Z,98104.00
2019-01-31T03:53:02.904Z,98109.00
2019-01-31T03:55:52.141Z,98106.00
2019-01-31T03:58:30.144Z,98093.00
2019-01-31T04:01:24.696Z,98086.00
2019-01-31T04:04:04.555Z,98081.00
2019-01-31T04:06:34.233Z,98077.00
2019-01-31T04:09:05.392Z,98079.00
2019-01-31T04:11:35.048Z,98073.00
2019-01-31T04:14:05.058Z,98073.00
2019-01-31T04:16:34.721Z,98077.00
2019-01-31T04:19:04.567Z,98078.00
2019-01-31T04:21:34.363Z,98077.00
2019-01-31T04:24:04.109Z,98080.00
2019-01-31T04:26:35.146Z,98082.00
2019-01-31T04:29:05.339Z,98080.00
2019-01-31T04:31:35.000Z,98084.00
2019-01-31T04:34:04.757Z,98071.00
2019-01-31T04:36:34.434Z,98079.00
2019-01-31T04:39:05.570Z,98077.00
2019-01-31T04:41:35.424Z,98071.00
2019-01-31T04:44:05.108Z,98062.00
2019-01-31T04:46:34.756Z,98064.00
2019-01-31T04:49:04.416Z,98057.00
2019-01-31T04:51:34.100Z,98062.00
2019-01-31T04:54:03.757Z,98066.00
2019-01-31T04:56:33.425Z,98067.00
2019-01-31T04:59:03.021Z,98067.00
2019-01-31T05:01:32.681Z,98071.00
2019-01-31T05:04:02.338Z,98069.00
2019-01-31T05:06:31.986Z,98076.00
2019-01-31T05:09:02.785Z,98061.00
2019-01-31T05:11:32.428Z,98060.00
2019-01-31T05:14:03.567Z,98050.00
2019-01-31T05:16:35.304Z,98054.00
2019-01-31T05:19:05.263Z,98048.00
2019-01-31T05:21:36.051Z,98044.00
2019-01-31T05:24:05.722Z,98044.00
2019-01-31T05:26:35.370Z,98045.00
2019-01-31T05:29:05.068Z,98041.00
2019-01-31T05:31:36.016Z,98040.00
2019-01-31T05:34:05.781Z,98039.00
2019-01-31T05:36:35.445Z,98036.00
2019-01-31T05:39:07.987Z,98031.00
2019-01-31T05:41:37.652Z,98012.00
2019-01-31T05:44:07.412Z,98015.00
2019-01-31T05:46:37.084Z,98013.00
2019-01-31T05:49:06.736Z,98000.00
2019-01-31T05:51:39.230Z,98005.00
2019-01-31T05:54:07.823Z,98005.00
2019-01-31T05:56:37.498Z,98001.00
2019-01-31T05:59:07.300Z,98001.00
2019-01-31T06:01:37.736Z,98003.00
2019-01-31T06:04:07.600Z,98002.00
2019-01-31T06:06:37.324Z,97988.00
2019-01-31T06:09:09.009Z,98010.00
2019-01-31T06:11:40.676Z,98011.00
2019-01-31T06:14:11.078Z,98015.00
2019-01-31T06:16:40.744Z,98008.00
2019-01-31T06:19:10.884Z,97998.00
2019-01-31T06:21:41.363Z,98000.00
2019-01-31T06:24:11.133Z,97995.00
2019-01-31T06:26:40.780Z,97999.00
2019-01-31T06:29:10.466Z,97989.00
2019-01-31T06:31:40.132Z,97997.00
2019-01-31T06:34:09.802Z,97986.00
2019-01-31T06:36:39.478Z,97980.00
2019-01-31T06:39:09.852Z,97985.00
2019-01-31T06:41:40.972Z,97975.00
2019-01-31T06:44:10.600Z,97969.00
2019-01-31T06:46:40.282Z,97972.00
2019-01-31T06:49:09.948Z,97972.00
2019-01-31T06:51:39.647Z,97963.00
2019-01-31T06:54:11.649Z,97951.00
2019-01-31T06:56:41.294Z,97946.00
2019-01-31T06:59:11.276Z,97952.00
2019-01-31T07:01:40.919Z,97951.00
2019-01-31T07:04:11.118Z,97926.00
2019-01-31T07:06:40.933Z,97938.00
2019-01-31T07:09:11.300Z,97937.00
2019-01-31T07:11:40.954Z,97936.00
2019-01-31T07:14:10.645Z,97940.00
2019-01-31T07:16:40.512Z,97931.00
2019-01-31T07:19:10.167Z,97927.00
2019-01-31T07:21:41.545Z,97930.00
2019-01-31T07:24:11.228Z,97937.00
2019-01-31T07:26:41.541Z,97934.00
2019-01-31T07:29:11.733Z,97932.00
2019-01-31T07:31:42.919Z,97941.00
2019-01-31T07:34:14.062Z,97947.00
2019-01-31T07:36:43.750Z,97940.00
2019-01-31T07:39:13.412Z,97947.00
2019-01-31T07:41:43.002Z,97942.00
2019-01-31T07:44:12.687Z,97942.00
2019-01-31T07:46:42.648Z,97942.00
2019-01-31T07:49:12.307Z,97933.00
2019-01-31T07:51:41.992Z,97934.00
2019-01-31T07:54:11.644Z,97933.00
2019-01-31T07:56:41.302Z,97931.00
2019-01-31T07:59:10.929Z,97924.00
2019-01-31T08:01:41.024Z,97926.00
2019-01-31T08:04:10.755Z,97928.00
2019-01-31T08:06:41.719Z,97923.00
2019-01-31T08:09:12.706Z,97917.00
2019-01-31T08:11:52.317Z,97919.00
2019-01-31T08:14:13.784Z,97920.00
2019-01-31T08:16:43.371Z,97915.00
2019-01-31T08:19:13.037Z,97911.00
2019-01-31T08:21:43.033Z,97910.00
2019-01-31T08:24:14.328Z,97908.00
2019-01-31T08:26:43.977Z,97920.00
2019-01-31T08:29:13.648Z,97910.00
2019-01-31T08:31:43.427Z,97906.00
2019-01-31T08:34:13.095Z,97906.00
2019-01-31T08:36:43.160Z,97908.00
2019-01-31T08:39:12.928Z,97848.00
2019-01-31T08:41:42.593Z,97891.00
2019-01-31T08:44:12.281Z,97895.00
2019-01-31T08:46:41.935Z,97888.00
2019-01-31T08:49:11.592Z,97889.00
2019-01-31T08:51:41.218Z,97891.00
2019-01-31T08:54:10.867Z,97890.00
2019-01-31T08:56:40.529Z,97888.00
2019-01-31T08:59:10.220Z,97883.00
2019-01-31T09:01:39.881Z,97881.00
2019-01-31T09:04:11.024Z,97881.00
2019-01-31T09:06:42.933Z,97878.00
2019-01-31T09:09:12.904Z,97887.00
2019-01-31T09:11:42.759Z,97882.00
2019-01-31T09:14:12.479Z,97873.00
2019-01-31T09:16:42.140Z,97877.00
2019-01-31T09:19:12.945Z,97882.00
2019-01-31T09:21:42.666Z,97880.00
2019-01-31T09:24:46.590Z,97874.00
2019-01-31T09:27:41.583Z,97885.00
2019-01-31T09:30:50.428Z,97873.00
2019-01-31T09:33:44.145Z,97865.00
2019-01-31T09:36:33.681Z,97858.00
2019-01-31T09:39:33.424Z,97853.00
2019-01-31T09:42:26.587Z,97851.00
2019-01-31T09:45:08.317Z,97850.00
2019-01-31T09:47:54.060Z,97840.00
2019-01-31T09:50:46.056Z,97851.00
2019-01-31T09:53:28.925Z,97842.00
2019-01-31T09:56:36.081Z,97841.00
2019-01-31T09:59:35.031Z,97826.00
2019-01-31T10:02:36.246Z,97821.00
2019-01-31T10:05:25.399Z,97823.00
2019-01-31T10:08:17.425Z,97820.00
2019-01-31T10:11:09.234Z,97831.00
2019-01-31T10:14:16.364Z,97822.00
2019-01-31T10:16:59.134Z,97818.00
2019-01-31T10:20:04.869Z,97817.00
2019-01-31T10:22:56.624Z,97805.00
2019-01-31T10:25:35.711Z,97804.00
2019-01-31T10:28:20.993Z,97809.00
2019-01-31T10:31:07.082Z,97820.00
2019-01-31T10:33:44.411Z,97813.00
2019-01-31T10:36:33.624Z,97807.00
2019-01-31T10:39:31.103Z,97809.00
2019-01-31T10:42:26.044Z,97797.00
2019-01-31T10:45:25.503Z,97812.00
2019-01-31T10:48:08.406Z,97806.00
2019-01-31T10:50:58.622Z,97797.00
2019-01-31T10:53:38.853Z,97803.00
2019-01-31T10:56:31.009Z,97808.00
2019-01-31T10:59:22.957Z,97827.00
2019-01-31T11:02:42.664Z,97811.00
2019-01-31T11:05:48.319Z,97807.00
2019-01-31T11:08:37.660Z,97807.00
2019-01-31T11:11:14.570Z,97789.00
2019-01-31T11:14:23.285Z,97794.00
2019-01-31T11:17:19.896Z,97797.00
2019-01-31T11:20:14.738Z,97791.00
2019-01-31T11:23:00.314Z,97790.00
2019-01-31T11:26:10.626Z,97778.00
2019-01-31T11:29:04.052Z,97768.00
2019-01-31T11:32:11.111Z,97773.00
2019-01-31T11:34:47.630Z,97757.00
2019-01-31T11:37:39.912Z,97768.00
2019-01-31T11:40:35.293Z,97765.00
2019-01-31T11:43:45.566Z,97743.00
2019-01-31T11:46:28.330Z,97745.00
2019-01-31T11:49:17.270Z,97743.00
2019-01-31T11:52:10.665Z,97735.00
2019-01-31T11:54:50.318Z,97688.00
2019-01-31T11:57:49.894Z,97732.00
2019-01-31T12:00:21.185Z,97726.00
2019-01-31T12:02:55.219Z,97721.00
2019-01-31T12:05:22.418Z,97716.00
2019-01-31T12:07:52.152Z,97721.00
2019-01-31T12:10:21.972Z,97715.00
2019-01-31T12:12:52.216Z,97707.00
2019-01-31T12:15:21.864Z,97701.00
2019-01-31T12:17:51.526Z,97701.00
2019-01-31T12:20:21.255Z,97694.00
2019-01-31T12:22:51.206Z,97695.00
2019-01-31T12:25:21.319Z,97693.00
2019-01-31T12:27:51.298Z,97675.00
2019-01-31T12:30:25.104Z,97688.00
2019-01-31T12:32:54.770Z,97669.00
2019-01-31T12:35:26.525Z,97665.00
2019-01-31T12:37:57.272Z,97665.00
2019-01-31T12:40:27.051Z,97664.00
2019-01-31T12:42:56.752Z,97648.00
2019-01-31T12:45:26.374Z,97644.00
2019-01-31T12:47:56.181Z,97643.00
2019-01-31T12:50:27.145Z,97652.00
2019-01-31T12:52:56.879Z,97633.00
2019-01-31T12:55:26.542Z,97643.00
2019-01-31T12:57:56.213Z,97639.00
2019-01-31T13:00:28.380Z,97634.00
2019-01-31T13:02:58.025Z,97628.00
2019-01-31T13:05:27.700Z,97626.00
2019-01-31T13:07:57.535Z,97626.00
2019-01-31T13:10:27.615Z,97620.00
2019-01-31T13:12:58.163Z,97609.00
2019-01-31T13:15:29.485Z,97608.00
2019-01-31T13:17:59.294Z,97605.00
2019-01-31T13:20:28.962Z,97605.00
2019-01-31T13:22:58.934Z,97594.00
2019-01-31T13:25:29.082Z,97586.00
2019-01-31T13:27:58.775Z,97583.00
2019-01-31T13:30:28.416Z,97586.00
2019-01-31T13:32:58.461Z,97568.00
2019-01-31T13:35:28.243Z,97569.00
2019-01-31T13:37:57.886Z,97563.00
2019-01-31T13:40:28.280Z,97560.00
2019-01-31T13:42:58.164Z,97548.00
2019-01-31T13:45:31.719Z,97551.00
2019-01-31T13:48:05.005Z,97547.00
2019-01-31T13:50:35.330Z,97535.00
2019-01-31T13:53:07.592Z,97534.00
2019-01-31T13:55:37.577Z,97527.00
2019-01-31T13:58:10.306Z,97519.00
2019-01-31T14:00:40.708Z,97515.00
2019-01-31T14:03:10.397Z,97515.00
2019-01-31T14:05:40.322Z,97502.00
2019-01-31T14:08:10.450Z,97511.00
2019-01-31T14:10:40.125Z,97500.00
2019-01-31T14:13:11.530Z,97491.00
2019-01-31T14:15:41.236Z,97487.00
2019-01-31T14:18:10.906Z,97485.00
2019-01-31T14:20:40.926Z,97484.00
2019-01-31T14:23:10.585Z,97485.00
2019-01-31T14:25:40.248Z,97481.00
2019-01-31T14:28:09.855Z,97481.00
2019-01-31T14:30:40.594Z,97485.00
2019-01-31T14:33:15.171Z,97478.00
2019-01-31T14:35:45.329Z,97476.00
2019-01-31T14:38:14.979Z,97477.00
2019-01-31T14:40:44.652Z,97474.00
2019-01-31T14:43:14.314Z,97469.00
2019-01-31T14:45:43.983Z,97464.00
2019-01-31T14:48:15.518Z,97456.00
2019-01-31T14:50:45.858Z,97460.00
2019-01-31T14:53:16.165Z,97459.00
2019-01-31T14:55:48.545Z,97447.00
2019-01-31T14:58:20.083Z,97441.00
2019-01-31T15:00:50.442Z,97435.00
2019-01-31T15:03:21.469Z,97448.00
2019-01-31T15:05:51.402Z,97442.00
2019-01-31T15:08:21.107Z,97444.00
2019-01-31T15:10:50.764Z,97443.00
2019-01-31T15:13:20.512Z,97437.00
2019-01-31T15:15:50.352Z,97443.00
2019-01-31T15:18:19.987Z,97447.00
2019-01-31T15:20:49.637Z,97426.00
2019-01-31T15:23:19.304Z,97421.00
2019-01-31T15:25:48.976Z,97411.00
2019-01-31T15:28:18.630Z,97415.00
2019-01-31T15:30:48.325Z,97430.00
2019-01-31T15:33:19.660Z,97427.00
2019-01-31T15:35:49.312Z,97431.00
2019-01-31T15:38:18.988Z,97427.00
2019-01-31T15:40:49.806Z,97434.00
2019-01-31T15:43:19.575Z,97422.00
2019-01-31T15:45:49.415Z,97432.00
2019-01-31T15:48:20.727Z,97424.00
2019-01-31T15:50:50.425Z,97415.00
2019-01-31T15:53:22.119Z,97418.00
2019-01-31T15:55:51.783Z,97413.00
2019-01-31T15:58:22.670Z,97424.00
2019-01-31T16:00:53.420Z,97429.00
2019-01-31T16:03:23.486Z,97424.00
2019-01-31T16:05:53.216Z,97420.00
2019-01-31T16:08:23.207Z,97430.00
2019-01-31T16:10:53.016Z,97425.00
2019-01-31T16:13:22.727Z,97429.00
2019-01-31T16:15:53.060Z,97430.00
2019-01-31T16:18:23.305Z,97432.00
2019-01-31T16:20:53.167Z,97437.00
2019-01-31T16:23:22.934Z,97436.00
2019-01-31T16:25:52.628Z,97428.00
2019-01-31T16:28:22.265Z,97431.00
2019-01-31T16:30:52.060Z,97439.00
2019-01-31T16:33:21.823Z,97436.00
2019-01-31T16:35:53.692Z,97440.00
2019-01-31T16:38:24.045Z,97449.00
2019-01-31T16:40:53.806Z,97438.00
2019-01-31T16:43:24.910Z,97445.00
2019-01-31T16:45:55.073Z,97448.00
2019-01-31T16:48:24.759Z,97440.00
2019-01-31T16:50:54.419Z,97445.00
2019-01-31T16:53:24.183Z,97441.00
2019-01-31T16:55:55.217Z,97449.00
2019-01-31T16:58:25.190Z,97452.00
2019-01-31T17:00:56.444Z,97449.00
2019-01-31T17:03:27.432Z,97454.00
2019-01-31T17:05:57.149Z,97444.00
2019-01-31T17:08:28.406Z,97446.00
2019-01-31T17:10:58.429Z,97441.00
2019-01-31T17:13:29.072Z,97441.00
2019-01-31T17:15:59.261Z,97445.00
2019-01-31T17:18:29.168Z,97438.00
2019-01-31T17:20:59.321Z,97439.00
2019-01-31T17:23:29.364Z,97445.00
2019-01-31T17:25:59.331Z,97443.00
2019-01-31T17:28:28.987Z,97445.00
2019-01-31T17:30:58.654Z,97437.00
2019-01-31T17:33:28.366Z,97426.00
2019-01-31T17:35:58.241Z,97426.00
2019-01-31T17:38:27.871Z,97419.00
2019-01-31T17:40:57.729Z,97409.00
2019-01-31T17:43:27.510Z,97407.00
2019-01-31T17:45:57.539Z,97407.00
2019-01-31T17:48:27.510Z,97402.00
2019-01-31T17:50:57.173Z,97404.00
2019-01-31T17:53:26.813Z,97397.00
2019-01-31T17:55:56.500Z,97405.00
2019-01-31T17:58:26.149Z,97403.00
2019-01-31T18:00:57.192Z,97402.00
2019-01-31T18:03:26.861Z,97399.00
2019-01-31T18:05:56.631Z,97398.00
2019-01-31T18:08:26.194Z,97391.00
2019-01-31T18:10:55.861Z,97385.00
2019-01-31T18:13:25.699Z,97389.00
2019-01-31T18:15:55.445Z,97392.00
2019-01-31T18:18:25.122Z,97381.00
2019-01-31T18:20:54.912Z,97370.00
2019-01-31T18:23:24.631Z,97378.00
2019-01-31T18:25:54.320Z,97375.00
2019-01-31T18:28:23.998Z,97385.00
2019-01-31T18:30:53.632Z,97370.00
2019-01-31T18:33:23.301Z,97377.00
2019-01-31T18:35:52.965Z,97369.00
2019-01-31T18:38:22.689Z,97381.00
2019-01-31T18:40:52.493Z,97376.00
2019-01-31T18:43:22.399Z,97370.00
2019-01-31T18:45:53.372Z,97369.00
2019-01-31T18:48:23.541Z,97367.00
2019-01-31T18:50:53.193Z,97362.00
2019-01-31T18:53:22.914Z,97344.00
2019-01-31T18:55:52.825Z,97353.00
2019-01-31T18:58:22.601Z,97343.00
2019-01-31T19:00:52.523Z,97350.00
2019-01-31T19:03:22.196Z,97340.00
2019-01-31T19:05:52.390Z,97345.00
2019-01-31T19:08:22.836Z,97333.00
2019-01-31T19:10:52.548Z,97332.00
2019-01-31T19:13:22.175Z,97331.00
2019-01-31T19:15:51.834Z,97329.00
2019-01-31T19:18:21.510Z,97334.00
2019-01-31T19:20:51.179Z,97325.00
2019-01-31T19:23:20.853Z,97313.00
2019-01-31T19:25:50.508Z,97323.00
2019-01-31T19:28:23.116Z,97333.00
2019-01-31T19:30:52.920Z,97328.00
2019-01-31T19:33:22.586Z,97319.00
2019-01-31T19:35:52.248Z,97315.00
2019-01-31T19:38:21.925Z,97310.00
2019-01-31T19:40:51.620Z,97309.00
2019-01-31T19:43:21.293Z,97308.00
2019-01-31T19:45:51.363Z,97306.00
2019-01-31T19:48:21.047Z,97295.00
2019-01-31T19:50:50.703Z,97294.00
2019-01-31T19:53:20.370Z,97299.00
2019-01-31T19:55:50.074Z,97297.00
2019-01-31T19:58:19.722Z,97292.00
2019-01-31T20:00:49.380Z,97281.00
2019-01-31T20:03:19.068Z,97278.00
2019-01-31T20:05:48.710Z,97289.00
2019-01-31T20:08:18.658Z,97288.00
2019-01-31T20:10:48.640Z,97293.00
2019-01-31T20:13:18.311Z,97300.00
2019-01-31T20:15:47.960Z,97286.00
2019-01-31T20:18:18.041Z,97293.00
2019-01-31T20:20:47.712Z,97296.00
2019-01-31T20:23:17.363Z,97286.00
2019-01-31T20:25:47.037Z,97298.00
2019-01-31T20:28:16.784Z,97283.00
2019-01-31T20:30:46.509Z,97303.00
2019-01-31T20:33:16.183Z,97294.00
2019-01-31T20:35:48.257Z,97295.00
2019-01-31T20:38:17.888Z,97296.00
2019-01-31T20:40:47.618Z,97299.00
2019-01-31T20:43:17.287Z,97290.00
2019-01-31T20:45:46.958Z,97291.00
2019-01-31T20:48:16.651Z,97298.00
2019-01-31T20:50:46.293Z,97292.00
2019-01-31T20:53:15.990Z,97283.00
2019-01-31T20:55:45.689Z,97290.00
2019-01-31T20:58:16.242Z,97292.00
2019-01-31T21:00:46.328Z,97286.00
2019-01-31T21:03:16.122Z,97289.00
2019-01-31T21:05:46.364Z,97285.00
2019-01-31T21:08:16.208Z,97296.00
2019-01-31T21:10:46.096Z,97286.00
2019-01-31T21:13:16.077Z,97286.00
2019-01-31T21:15:45.754Z,97297.00
2019-01-31T21:18:15.434Z,97305.00
2019-01-31T21:20:45.103Z,97289.00
2019-01-31T21:23:14.842Z,97296.00
2019-01-31T21:25:44.522Z,97305.00
2019-01-31T21:28:14.272Z,97303.00
2019-01-31T21:30:44.087Z,97299.00
2019-01-31T21:33:13.948Z,97298.00
2019-01-31T21:35:43.599Z,97300.00
2019-01-31T21:38:13.354Z,97305.00
2019-01-31T21:40:43.033Z,97302.00
2019-01-31T21:43:12.698Z,97307.00
2019-01-31T21:45:42.420Z,97303.00
2019-01-31T21:48:12.108Z,97296.00
2019-01-31T21:50:41.766Z,97309.00
2019-01-31T21:53:13.220Z,97309.00
2019-01-31T21:55:44.352Z,97304.00
2019-01-31T21:58:14.105Z,97306.00
2019-01-31T22:00:43.786Z,97305.00
2019-01-31T22:03:13.676Z,97310.00
2019-01-31T22:05:44.676Z,97306.00
2019-01-31T22:08:17.984Z,97295.00
2019-01-31T22:10:50.594Z,97302.00
2019-01-31T22:13:22.700Z,97302.00
2019-01-31T22:15:52.480Z,97298.00
2019-01-31T22:18:22.144Z,97299.00
2019-01-31T22:20:51.786Z,97303.00
2019-01-31T22:23:36.087Z,97307.00
2019-01-31T22:26:07.432Z,97303.00
2019-01-31T22:28:37.131Z,97302.00
2019-01-31T22:31:11.066Z,97308.00
2019-01-31T22:33:49.465Z,97306.00
2019-01-31T22:36:19.254Z,97309.00
2019-01-31T22:38:48.878Z,97306.00
2019-01-31T22:41:18.838Z,97297.00
2019-01-31T22:43:48.587Z,97297.00
2019-01-31T22:46:22.261Z,97298.00
2019-01-31T22:48:53.037Z,97307.00
2019-01-31T22:51:22.701Z,97300.00
2019-01-31T22:53:52.286Z,97310.00
2019-01-31T22:56:21.952Z,97301.00
2019-01-31T22:58:52.035Z,97308.00
2019-01-31T23:01:24.337Z,97298.00
2019-01-31T23:03:57.002Z,97307.00
2019-01-31T23:06:28.122Z,97297.00
2019-01-31T23:08:58.260Z,97311.00
2019-01-31T23:11:28.304Z,97305.00
2019-01-31T23:13:57.960Z,97307.00
2019-01-31T23:16:27.597Z,97307.00
2019-01-31T23:18:57.284Z,97305.00
2019-01-31T23:21:26.931Z,97313.00
2019-01-31T23:23:56.645Z,97320.00
2019-01-31T23:26:27.816Z,97327.00
2019-01-31T23:28:57.610Z,97323.00
2019-01-31T23:31:27.762Z,97331.00
2019-01-31T23:33:57.530Z,97325.00
2019-01-31T23:36:27.183Z,97338.00
2019-01-31T23:38:56.847Z,97331.00
2019-01-31T23:41:26.520Z,97336.00
2019-01-31T23:43:57.224Z,97342.00
2019-01-31T23:46:26.942Z,97330.00
2019-01-31T23:48:56.815Z,97333.00
2019-01-31T23:51:26.538Z,97333.00
2019-01-31T23:53:56.215Z,97338.00
2019-01-31T23:56:25.918Z,97339.00
2019-01-31T23:58:55.576Z,97340.00
